sensor_id;sensor_type;location;lat;lon;timestamp;pressure;altitude;pressure_sealevel;temperature;humidity
49529;BME280;35423;37.320;-121.762;2023-04-28T00:01:47;99455.30;;;48.29;4.26
49529;BME280;35423;37.320;-121.762;2023-04-28T00:04:12;99453.70;;;48.17;4.38
49529;BME280;35423;37.320;-121.762;2023-04-28T00:06:46;99455.16;;;48.01;4.45
49529;BME280;35423;37.320;-121.762;2023-04-28T00:09:18;99456.93;;;47.85;4.57
49529;BME280;35423;37.320;-121.762;2023-04-28T00:11:46;99457.30;;;47.81;4.57
49529;BME280;35423;37.320;-121.762;2023-04-28T00:14:15;99457.12;;;47.91;4.51
49529;BME280;35423;37.320;-121.762;2023-04-28T00:16:40;99454.12;;;47.79;4.62
49529;BME280;35423;37.320;-121.762;2023-04-28T00:19:07;99454.53;;;47.75;4.64
49529;BME280;35423;37.320;-121.762;2023-04-28T00:21:38;99452.84;;;47.35;4.52
49529;BME280;35423;37.320;-121.762;2023-04-28T00:24:06;99453.43;;;47.38;4.68
49529;BME280;35423;37.320;-121.762;2023-04-28T00:26:32;99454.25;;;47.28;4.72
49529;BME280;35423;37.320;-121.762;2023-04-28T00:28:57;99452.03;;;47.14;4.82
49529;BME280;35423;37.320;-121.762;2023-04-28T00:31:23;99449.28;;;47.09;4.75
49529;BME280;35423;37.320;-121.762;2023-04-28T00:33:51;99452.72;;;47.23;4.76
49529;BME280;35423;37.320;-121.762;2023-04-28T00:36:17;99452.14;;;46.88;4.79
49529;BME280;35423;37.320;-121.762;2023-04-28T00:38:44;99455.02;;;47.01;4.77
49529;BME280;35423;37.320;-121.762;2023-04-28T00:41:09;99453.22;;;46.96;4.75
49529;BME280;35423;37.320;-121.762;2023-04-28T00:43:44;99448.54;;;46.86;4.75
49529;BME280;35423;37.320;-121.762;2023-04-28T00:46:00;99451.24;;;46.77;4.76
49529;BME280;35423;37.320;-121.762;2023-04-28T00:48:26;99454.59;;;46.68;4.62
49529;BME280;35423;37.320;-121.762;2023-04-28T00:50:52;99457.69;;;46.56;4.62
49529;BME280;35423;37.320;-121.762;2023-04-28T00:53:18;99460.13;;;46.45;4.54
49529;BME280;35423;37.320;-121.762;2023-04-28T00:55:44;99462.66;;;46.31;4.53
49529;BME280;35423;37.320;-121.762;2023-04-28T00:58:10;99464.03;;;46.66;4.52
49529;BME280;35423;37.320;-121.762;2023-04-28T01:00:44;99469.07;;;46.03;4.59
49529;BME280;35423;37.320;-121.762;2023-04-28T01:03:04;99465.65;;;45.93;4.59
49529;BME280;35423;37.320;-121.762;2023-04-28T01:05:31;99464.19;;;46.03;4.77
49529;BME280;35423;37.320;-121.762;2023-04-28T01:08:08;99465.46;;;46.11;4.84
49529;BME280;35423;37.320;-121.762;2023-04-28T01:10:34;99462.03;;;45.48;4.92
49529;BME280;35423;37.320;-121.762;2023-04-28T01:13:08;99463.24;;;45.85;4.91
49529;BME280;35423;37.320;-121.762;2023-04-28T01:15:40;99465.05;;;45.67;5.07
49529;BME280;35423;37.320;-121.762;2023-04-28T01:18:05;99462.38;;;45.57;5.12
49529;BME280;35423;37.320;-121.762;2023-04-28T01:20:31;99463.76;;;45.45;5.16
49529;BME280;35423;37.320;-121.762;2023-04-28T01:22:57;99463.62;;;45.32;5.08
49529;BME280;35423;37.320;-121.762;2023-04-28T01:25:25;99466.77;;;45.21;5.13
49529;BME280;35423;37.320;-121.762;2023-04-28T01:27:52;99468.41;;;45.12;5.22
49529;BME280;35423;37.320;-121.762;2023-04-28T01:30:20;99469.93;;;45.09;5.11
49529;BME280;35423;37.320;-121.762;2023-04-28T01:32:45;99467.88;;;44.96;5.07
49529;BME280;35423;37.320;-121.762;2023-04-28T01:35:16;99467.97;;;45.31;5.18
49529;BME280;35423;37.320;-121.762;2023-04-28T01:37:42;99466.70;;;44.74;5.10
49529;BME280;35423;37.320;-121.762;2023-04-28T01:40:11;99468.39;;;44.89;5.09
49529;BME280;35423;37.320;-121.762;2023-04-28T01:42:39;99469.72;;;44.99;4.98
49529;BME280;35423;37.320;-121.762;2023-04-28T01:45:11;99472.08;;;44.83;4.85
49529;BME280;35423;37.320;-121.762;2023-04-28T01:47:37;99472.07;;;44.45;4.85
49529;BME280;35423;37.320;-121.762;2023-04-28T01:50:18;99471.15;;;44.47;4.91
49529;BME280;35423;37.320;-121.762;2023-04-28T01:52:45;99475.34;;;43.82;5.01
49529;BME280;35423;37.320;-121.762;2023-04-28T01:55:14;99478.24;;;44.10;5.22
49529;BME280;35423;37.320;-121.762;2023-04-28T01:57:40;99479.06;;;43.97;5.45
49529;BME280;35423;37.320;-121.762;2023-04-28T02:00:14;99475.13;;;43.78;5.71
49529;BME280;35423;37.320;-121.762;2023-04-28T02:02:45;99475.50;;;43.89;5.83
49529;BME280;35423;37.320;-121.762;2023-04-28T02:05:10;99476.22;;;43.53;5.91
49529;BME280;35423;37.320;-121.762;2023-04-28T02:07:38;99476.75;;;43.34;6.09
49529;BME280;35423;37.320;-121.762;2023-04-28T02:10:05;99479.03;;;43.45;6.27
49529;BME280;35423;37.320;-121.762;2023-04-28T02:12:30;99480.72;;;43.27;6.45
49529;BME280;35423;37.320;-121.762;2023-04-28T02:14:55;99481.45;;;42.86;6.69
49529;BME280;35423;37.320;-121.762;2023-04-28T02:17:23;99480.46;;;42.68;6.85
49529;BME280;35423;37.320;-121.762;2023-04-28T02:19:54;99481.05;;;42.73;7.05
49529;BME280;35423;37.320;-121.762;2023-04-28T02:22:20;99483.41;;;42.54;7.25
49529;BME280;35423;37.320;-121.762;2023-04-28T02:24:46;99484.95;;;42.59;7.46
49529;BME280;35423;37.320;-121.762;2023-04-28T02:27:13;99485.78;;;42.37;7.68
49529;BME280;35423;37.320;-121.762;2023-04-28T02:29:39;99486.12;;;42.41;7.89
49529;BME280;35423;37.320;-121.762;2023-04-28T02:32:05;99489.17;;;41.97;8.07
49529;BME280;35423;37.320;-121.762;2023-04-28T02:34:33;99492.65;;;42.01;8.24
49529;BME280;35423;37.320;-121.762;2023-04-28T02:37:00;99492.39;;;42.11;8.40
49529;BME280;35423;37.320;-121.762;2023-04-28T02:39:25;99494.48;;;41.92;8.40
49529;BME280;35423;37.320;-121.762;2023-04-28T02:41:51;99496.04;;;41.46;8.45
49529;BME280;35423;37.320;-121.762;2023-04-28T02:44:20;99499.66;;;41.29;8.50
49529;BME280;35423;37.320;-121.762;2023-04-28T02:46:45;99502.92;;;41.12;8.61
49529;BME280;35423;37.320;-121.762;2023-04-28T02:49:12;99502.68;;;41.22;8.70
49529;BME280;35423;37.320;-121.762;2023-04-28T02:51:38;99506.12;;;41.04;8.85
49529;BME280;35423;37.320;-121.762;2023-04-28T02:54:02;99509.22;;;40.89;8.96
49529;BME280;35423;37.320;-121.762;2023-04-28T02:56:30;99514.30;;;40.66;9.11
49529;BME280;35423;37.320;-121.762;2023-04-28T02:58:56;99516.53;;;40.49;9.30
49529;BME280;35423;37.320;-121.762;2023-04-28T03:01:23;99516.04;;;40.35;9.51
49529;BME280;35423;37.320;-121.762;2023-04-28T03:03:48;99517.29;;;40.19;9.75
49529;BME280;35423;37.320;-121.762;2023-04-28T03:06:16;99520.14;;;40.50;10.00
49529;BME280;35423;37.320;-121.762;2023-04-28T03:08:44;99525.54;;;40.12;10.29
49529;BME280;35423;37.320;-121.762;2023-04-28T03:11:15;99526.61;;;40.16;10.43
49529;BME280;35423;37.320;-121.762;2023-04-28T03:13:40;99528.60;;;40.00;10.60
49529;BME280;35423;37.320;-121.762;2023-04-28T03:16:11;99530.92;;;39.89;10.76
49529;BME280;35423;37.320;-121.762;2023-04-28T03:18:35;99532.13;;;39.72;10.88
49529;BME280;35423;37.320;-121.762;2023-04-28T03:21:04;99533.97;;;39.59;10.92
49529;BME280;35423;37.320;-121.762;2023-04-28T03:23:30;99537.86;;;39.93;11.06
49529;BME280;35423;37.320;-121.762;2023-04-28T03:25:57;99545.56;;;39.77;11.24
49529;BME280;35423;37.320;-121.762;2023-04-28T03:28:27;99543.80;;;39.34;11.32
49529;BME280;35423;37.320;-121.762;2023-04-28T03:30:54;99545.77;;;39.39;11.27
49529;BME280;35423;37.320;-121.762;2023-04-28T03:33:26;99550.07;;;39.23;11.56
49529;BME280;35423;37.320;-121.762;2023-04-28T03:35:49;99555.78;;;38.63;11.67
49529;BME280;35423;37.320;-121.762;2023-04-28T03:38:15;99558.87;;;38.73;11.63
49529;BME280;35423;37.320;-121.762;2023-04-28T03:40:42;99562.96;;;38.72;11.88
49529;BME280;35423;37.320;-121.762;2023-04-28T03:43:08;99566.33;;;38.47;12.01
49529;BME280;35423;37.320;-121.762;2023-04-28T03:45:35;99567.39;;;38.29;12.09
49529;BME280;35423;37.320;-121.762;2023-04-28T03:48:03;99568.54;;;38.10;12.26
49529;BME280;35423;37.320;-121.762;2023-04-28T03:50:36;99574.29;;;37.95;12.43
49529;BME280;35423;37.320;-121.762;2023-04-28T03:53:09;99575.54;;;37.73;12.44
49529;BME280;35423;37.320;-121.762;2023-04-28T03:55:38;99577.59;;;37.58;12.51
49529;BME280;35423;37.320;-121.762;2023-04-28T03:58:20;99579.44;;;37.92;12.60
49529;BME280;35423;37.320;-121.762;2023-04-28T04:00:45;99577.21;;;37.52;12.61
49529;BME280;35423;37.320;-121.762;2023-04-28T04:03:11;99581.26;;;37.62;12.68
49529;BME280;35423;37.320;-121.762;2023-04-28T04:05:40;99588.47;;;37.24;12.82
49529;BME280;35423;37.320;-121.762;2023-04-28T04:08:04;99590.23;;;37.40;12.98
49529;BME280;35423;37.320;-121.762;2023-04-28T04:10:31;99598.27;;;37.28;13.10
49529;BME280;35423;37.320;-121.762;2023-04-28T04:12:59;99596.14;;;37.16;13.08
49529;BME280;35423;37.320;-121.762;2023-04-28T04:15:24;99600.95;;;37.44;13.35
49529;BME280;35423;37.320;-121.762;2023-04-28T04:17:50;99605.05;;;36.70;13.62
49529;BME280;35423;37.320;-121.762;2023-04-28T04:20:27;99608.69;;;36.42;13.63
49529;BME280;35423;37.320;-121.762;2023-04-28T04:22:54;99610.97;;;36.43;13.54
49529;BME280;35423;37.320;-121.762;2023-04-28T04:25:25;99611.22;;;36.34;13.55
49529;BME280;35423;37.320;-121.762;2023-04-28T04:27:51;99612.69;;;36.29;13.57
49529;BME280;35423;37.320;-121.762;2023-04-28T04:30:20;99615.22;;;36.21;13.69
49529;BME280;35423;37.320;-121.762;2023-04-28T04:32:48;99619.58;;;36.10;13.71
49529;BME280;35423;37.320;-121.762;2023-04-28T04:35:22;99621.91;;;36.25;13.62
49529;BME280;35423;37.320;-121.762;2023-04-28T04:37:52;99622.65;;;35.99;13.75
49529;BME280;35423;37.320;-121.762;2023-04-28T04:40:17;99626.53;;;35.86;13.80
49529;BME280;35423;37.320;-121.762;2023-04-28T04:42:43;99627.81;;;35.71;13.86
49529;BME280;35423;37.320;-121.762;2023-04-28T04:45:13;99630.29;;;35.63;13.94
49529;BME280;35423;37.320;-121.762;2023-04-28T04:47:40;99632.25;;;35.54;14.00
49529;BME280;35423;37.320;-121.762;2023-04-28T04:50:12;99633.53;;;35.39;14.03
49529;BME280;35423;37.320;-121.762;2023-04-28T04:52:38;99635.32;;;35.31;14.10
49529;BME280;35423;37.320;-121.762;2023-04-28T04:55:06;99635.86;;;35.18;14.18
49529;BME280;35423;37.320;-121.762;2023-04-28T04:57:41;99637.05;;;35.50;14.30
49529;BME280;35423;37.320;-121.762;2023-04-28T05:00:09;99639.91;;;35.42;14.40
49529;BME280;35423;37.320;-121.762;2023-04-28T05:02:39;99641.84;;;35.09;14.42
49529;BME280;35423;37.320;-121.762;2023-04-28T05:05:05;99642.72;;;34.96;14.53
49529;BME280;35423;37.320;-121.762;2023-04-28T05:07:33;99644.76;;;34.83;14.64
49529;BME280;35423;37.320;-121.762;2023-04-28T05:10:05;99649.35;;;34.72;14.70
49529;BME280;35423;37.320;-121.762;2023-04-28T05:12:28;99650.56;;;34.84;14.67
49529;BME280;35423;37.320;-121.762;2023-04-28T05:14:57;99652.52;;;34.72;14.66
49529;BME280;35423;37.320;-121.762;2023-04-28T05:17:22;99653.75;;;34.57;14.70
49529;BME280;35423;37.320;-121.762;2023-04-28T05:19:51;99654.30;;;34.44;14.73
49529;BME280;35423;37.320;-121.762;2023-04-28T05:22:16;99655.28;;;34.31;14.82
49529;BME280;35423;37.320;-121.762;2023-04-28T05:24:42;99654.83;;;34.42;14.92
49529;BME280;35423;37.320;-121.762;2023-04-28T05:27:10;99652.14;;;34.50;15.06
49529;BME280;35423;37.320;-121.762;2023-04-28T05:29:38;99648.53;;;33.89;15.09
49529;BME280;35423;37.320;-121.762;2023-04-28T05:32:05;99647.32;;;34.26;15.18
49529;BME280;35423;37.320;-121.762;2023-04-28T05:34:32;99645.66;;;34.11;15.25
49529;BME280;35423;37.320;-121.762;2023-04-28T05:37:00;99646.54;;;34.00;15.36
49529;BME280;35423;37.320;-121.762;2023-04-28T05:39:35;99648.43;;;33.90;15.49
49529;BME280;35423;37.320;-121.762;2023-04-28T05:42:09;99648.13;;;33.81;15.53
49529;BME280;35423;37.320;-121.762;2023-04-28T05:44:36;99647.03;;;33.49;15.53
49529;BME280;35423;37.320;-121.762;2023-04-28T05:47:03;99649.88;;;33.62;15.64
49529;BME280;35423;37.320;-121.762;2023-04-28T05:49:27;99652.99;;;33.51;15.75
49529;BME280;35423;37.320;-121.762;2023-04-28T05:51:54;99655.48;;;33.38;15.87
49529;BME280;35423;37.320;-121.762;2023-04-28T05:54:21;99659.18;;;33.46;15.91
49529;BME280;35423;37.320;-121.762;2023-04-28T05:56:47;99662.61;;;33.38;15.99
49529;BME280;35423;37.320;-121.762;2023-04-28T05:59:12;99666.36;;;33.29;15.99
49529;BME280;35423;37.320;-121.762;2023-04-28T06:01:39;99664.62;;;33.18;16.00
49529;BME280;35423;37.320;-121.762;2023-04-28T06:04:06;99663.79;;;33.26;16.10
49529;BME280;35423;37.320;-121.762;2023-04-28T06:06:32;99663.37;;;32.85;16.15
49529;BME280;35423;37.320;-121.762;2023-04-28T06:08:58;99666.57;;;32.97;16.33
49529;BME280;35423;37.320;-121.762;2023-04-28T06:11:34;99665.06;;;32.87;16.47
49529;BME280;35423;37.320;-121.762;2023-04-28T06:14:00;99662.04;;;32.47;16.53
49529;BME280;35423;37.320;-121.762;2023-04-28T06:16:25;99664.12;;;32.64;16.55
49529;BME280;35423;37.320;-121.762;2023-04-28T06:18:50;99666.42;;;32.52;16.57
49529;BME280;35423;37.320;-121.762;2023-04-28T06:21:18;99672.03;;;32.42;16.62
49529;BME280;35423;37.320;-121.762;2023-04-28T06:23:47;99675.65;;;32.30;16.76
49529;BME280;35423;37.320;-121.762;2023-04-28T06:26:13;99674.68;;;32.14;17.01
49529;BME280;35423;37.320;-121.762;2023-04-28T06:28:39;99674.83;;;32.04;17.24
49529;BME280;35423;37.320;-121.762;2023-04-28T06:31:05;99673.78;;;32.18;17.47
49529;BME280;35423;37.320;-121.762;2023-04-28T06:33:34;99676.48;;;32.09;17.78
49529;BME280;35423;37.320;-121.762;2023-04-28T06:36:01;99675.37;;;31.98;18.14
49529;BME280;35423;37.320;-121.762;2023-04-28T06:38:29;99676.14;;;31.85;18.41
49529;BME280;35423;37.320;-121.762;2023-04-28T06:40:56;99676.12;;;31.75;18.64
49529;BME280;35423;37.320;-121.762;2023-04-28T06:43:24;99682.13;;;31.96;18.84
49529;BME280;35423;37.320;-121.762;2023-04-28T06:45:49;99685.77;;;31.63;18.98
49529;BME280;35423;37.320;-121.762;2023-04-28T06:48:15;99686.26;;;31.54;19.11
49529;BME280;35423;37.320;-121.762;2023-04-28T06:50:46;99686.83;;;31.72;19.22
49529;BME280;35423;37.320;-121.762;2023-04-28T06:53:20;99687.76;;;31.37;19.34
49529;BME280;35423;37.320;-121.762;2023-04-28T06:55:42;99690.36;;;31.28;19.50
49529;BME280;35423;37.320;-121.762;2023-04-28T06:58:08;99693.02;;;31.39;19.60
49529;BME280;35423;37.320;-121.762;2023-04-28T07:00:46;99689.14;;;30.93;19.71
49529;BME280;35423;37.320;-121.762;2023-04-28T07:03:11;99688.91;;;31.11;19.71
49529;BME280;35423;37.320;-121.762;2023-04-28T07:05:39;99688.59;;;30.96;19.75
49529;BME280;35423;37.320;-121.762;2023-04-28T07:08:07;99686.76;;;31.27;19.67
49529;BME280;35423;37.320;-121.762;2023-04-28T07:10:38;99686.57;;;31.14;19.67
49529;BME280;35423;37.320;-121.762;2023-04-28T07:13:16;99685.94;;;30.56;19.79
49529;BME280;35423;37.320;-121.762;2023-04-28T07:15:47;99689.47;;;30.92;19.92
49529;BME280;35423;37.320;-121.762;2023-04-28T07:18:12;99694.72;;;30.45;20.00
49529;BME280;35423;37.320;-121.762;2023-04-28T07:20:38;99697.12;;;30.76;20.10
49529;BME280;35423;37.320;-121.762;2023-04-28T07:23:06;99702.50;;;30.43;20.21
49529;BME280;35423;37.320;-121.762;2023-04-28T07:25:33;99703.31;;;30.59;20.23
49529;BME280;35423;37.320;-121.762;2023-04-28T07:28:11;99704.94;;;30.51;20.14
49529;BME280;35423;37.320;-121.762;2023-04-28T07:30:41;99705.06;;;30.44;20.18
49529;BME280;35423;37.320;-121.762;2023-04-28T07:33:07;99701.78;;;30.32;20.40
49529;BME280;35423;37.320;-121.762;2023-04-28T07:35:41;99698.30;;;30.25;20.45
49529;BME280;35423;37.320;-121.762;2023-04-28T07:38:08;99696.13;;;30.42;20.45
49529;BME280;35423;37.320;-121.762;2023-04-28T07:40:34;99690.47;;;30.07;20.52
49529;BME280;35423;37.320;-121.762;2023-04-28T07:43:05;99684.28;;;29.92;20.60
49529;BME280;35423;37.320;-121.762;2023-04-28T07:45:30;99686.64;;;29.77;20.65
49529;BME280;35423;37.320;-121.762;2023-04-28T07:47:58;99686.39;;;29.92;20.77
49529;BME280;35423;37.320;-121.762;2023-04-28T07:50:26;99686.47;;;29.54;20.82
49529;BME280;35423;37.320;-121.762;2023-04-28T07:52:54;99687.71;;;29.90;20.87
49529;BME280;35423;37.320;-121.762;2023-04-28T07:55:19;99686.54;;;29.57;20.84
49529;BME280;35423;37.320;-121.762;2023-04-28T07:57:44;99689.79;;;29.72;20.86
49529;BME280;35423;37.320;-121.762;2023-04-28T08:00:12;99688.46;;;29.56;20.92
49529;BME280;35423;37.320;-121.762;2023-04-28T08:02:44;99688.01;;;29.23;21.00
49529;BME280;35423;37.320;-121.762;2023-04-28T08:05:12;99687.09;;;29.39;21.03
49529;BME280;35423;37.320;-121.762;2023-04-28T08:07:45;99684.04;;;29.32;21.05
49529;BME280;35423;37.320;-121.762;2023-04-28T08:10:11;99680.30;;;29.24;21.05
49529;BME280;35423;37.320;-121.762;2023-04-28T08:12:38;99679.96;;;29.18;21.04
49529;BME280;35423;37.320;-121.762;2023-04-28T08:15:11;99676.26;;;29.10;21.08
49529;BME280;35423;37.320;-121.762;2023-04-28T08:17:43;99673.15;;;29.03;21.10
49529;BME280;35423;37.320;-121.762;2023-04-28T08:20:14;99672.31;;;28.96;21.12
49529;BME280;35423;37.320;-121.762;2023-04-28T08:22:44;99673.70;;;28.92;21.14
49529;BME280;35423;37.320;-121.762;2023-04-28T08:25:25;99674.37;;;28.81;21.21
49529;BME280;35423;37.320;-121.762;2023-04-28T08:27:56;99673.74;;;28.67;21.26
49529;BME280;35423;37.320;-121.762;2023-04-28T08:30:25;99668.85;;;29.03;21.22
49529;BME280;35423;37.320;-121.762;2023-04-28T08:32:53;99665.65;;;28.65;21.26
49529;BME280;35423;37.320;-121.762;2023-04-28T08:35:18;99665.62;;;28.33;21.35
49529;BME280;35423;37.320;-121.762;2023-04-28T08:37:57;99661.03;;;28.45;21.45
49529;BME280;35423;37.320;-121.762;2023-04-28T08:40:22;99660.49;;;28.11;21.49
49529;BME280;35423;37.320;-121.762;2023-04-28T08:43:31;99656.77;;;28.51;21.61
49529;BME280;35423;37.320;-121.762;2023-04-28T08:45:52;99652.23;;;27.92;21.66
49529;BME280;35423;37.320;-121.762;2023-04-28T08:48:20;99652.84;;;28.31;21.66
49529;BME280;35423;37.320;-121.762;2023-04-28T08:50:49;99654.79;;;28.25;21.63
49529;BME280;35423;37.320;-121.762;2023-04-28T08:53:12;99653.02;;;28.20;21.61
49529;BME280;35423;37.320;-121.762;2023-04-28T08:55:38;99652.50;;;28.08;21.63
49529;BME280;35423;37.320;-121.762;2023-04-28T08:58:03;99649.73;;;27.98;21.62
49529;BME280;35423;37.320;-121.762;2023-04-28T09:00:30;99647.15;;;27.91;21.60
49529;BME280;35423;37.320;-121.762;2023-04-28T09:03:02;99648.55;;;28.02;21.66
49529;BME280;35423;37.320;-121.762;2023-04-28T09:05:27;99648.59;;;27.68;21.75
49529;BME280;35423;37.320;-121.762;2023-04-28T09:08:01;99644.83;;;27.60;21.74
49529;BME280;35423;37.320;-121.762;2023-04-28T09:10:25;99642.39;;;27.73;21.74
49529;BME280;35423;37.320;-121.762;2023-04-28T09:13:09;99640.87;;;27.90;21.83
49529;BME280;35423;37.320;-121.762;2023-04-28T09:15:41;99643.58;;;27.36;21.99
49529;BME280;35423;37.320;-121.762;2023-04-28T09:18:07;99643.89;;;27.30;22.09
49529;BME280;35423;37.320;-121.762;2023-04-28T09:20:34;99644.35;;;27.45;22.09
49529;BME280;35423;37.320;-121.762;2023-04-28T09:25:25;99641.92;;;27.09;21.95
49529;BME280;35423;37.320;-121.762;2023-04-28T09:27:54;99639.31;;;27.02;21.89
49529;BME280;35423;37.320;-121.762;2023-04-28T09:30:46;99640.99;;;27.12;21.84
49529;BME280;35423;37.320;-121.762;2023-04-28T09:33:13;99641.54;;;27.28;21.82
49529;BME280;35423;37.320;-121.762;2023-04-28T09:35:44;99638.51;;;27.17;21.89
49529;BME280;35423;37.320;-121.762;2023-04-28T09:38:16;99637.32;;;26.83;21.84
49529;BME280;35423;37.320;-121.762;2023-04-28T09:40:52;99636.11;;;27.02;21.89
49529;BME280;35423;37.320;-121.762;2023-04-28T09:45:39;99633.55;;;26.83;22.03
49529;BME280;35423;37.320;-121.762;2023-04-28T09:48:09;99629.28;;;26.51;22.08
49529;BME280;35423;37.320;-121.762;2023-04-28T09:50:38;99631.17;;;26.72;22.18
49529;BME280;35423;37.320;-121.762;2023-04-28T09:53:02;99634.08;;;26.67;22.20
49529;BME280;35423;37.320;-121.762;2023-04-28T09:55:34;99633.36;;;26.61;22.12
49529;BME280;35423;37.320;-121.762;2023-04-28T09:58:04;99633.97;;;26.53;22.01
49529;BME280;35423;37.320;-121.762;2023-04-28T10:00:27;99630.70;;;26.45;21.98
49529;BME280;35423;37.320;-121.762;2023-04-28T10:02:52;99628.57;;;26.81;21.97
49529;BME280;35423;37.320;-121.762;2023-04-28T10:05:17;99628.25;;;26.31;21.94
49529;BME280;35423;37.320;-121.762;2023-04-28T10:07:48;99629.57;;;26.26;21.92
49529;BME280;35423;37.320;-121.762;2023-04-28T10:10:15;99631.90;;;26.20;21.94
49529;BME280;35423;37.320;-121.762;2023-04-28T10:12:42;99635.35;;;26.13;21.99
49529;BME280;35423;37.320;-121.762;2023-04-28T10:15:10;99636.78;;;26.28;22.16
49529;BME280;35423;37.320;-121.762;2023-04-28T10:17:35;99639.47;;;26.44;22.14
49529;BME280;35423;37.320;-121.762;2023-04-28T10:20:02;99638.62;;;26.12;22.21
49529;BME280;35423;37.320;-121.762;2023-04-28T10:22:41;99640.72;;;26.30;22.17
49529;BME280;35423;37.320;-121.762;2023-04-28T10:27:29;99642.76;;;25.96;22.28
49529;BME280;35423;37.320;-121.762;2023-04-28T10:30:09;99644.42;;;26.10;22.40
49529;BME280;35423;37.320;-121.762;2023-04-28T10:32:29;99642.30;;;26.04;22.53
49529;BME280;35423;37.320;-121.762;2023-04-28T10:44:46;99631.74;;;25.62;22.91
49529;BME280;35423;37.320;-121.762;2023-04-28T10:47:11;99631.15;;;25.57;23.08
49529;BME280;35423;37.320;-121.762;2023-04-28T10:54:32;99636.63;;;25.45;23.51
49529;BME280;35423;37.320;-121.762;2023-04-28T10:59:26;99634.49;;;25.60;23.24
49529;BME280;35423;37.320;-121.762;2023-04-28T11:04:17;99642.71;;;25.16;23.41
49529;BME280;35423;37.320;-121.762;2023-04-28T11:12:06;99638.85;;;25.39;23.57
49529;BME280;35423;37.320;-121.762;2023-04-28T11:14:32;99639.35;;;24.90;23.63
49529;BME280;35423;37.320;-121.762;2023-04-28T11:16:57;99638.22;;;24.87;23.68
49529;BME280;35423;37.320;-121.762;2023-04-28T11:19:24;99635.97;;;24.83;23.73
49529;BME280;35423;37.320;-121.762;2023-04-28T11:21:52;99633.66;;;25.03;23.79
49529;BME280;35423;37.320;-121.762;2023-04-28T11:24:17;99634.92;;;25.19;23.83
49529;BME280;35423;37.320;-121.762;2023-04-28T11:26:47;99639.63;;;24.91;23.89
49529;BME280;35423;37.320;-121.762;2023-04-28T11:29:11;99638.83;;;25.09;23.94
49529;BME280;35423;37.320;-121.762;2023-04-28T11:31:37;99638.75;;;25.06;23.96
49529;BME280;35423;37.320;-121.762;2023-04-28T11:34:06;99638.50;;;25.02;23.99
49529;BME280;35423;37.320;-121.762;2023-04-28T11:36:34;99641.05;;;24.97;24.03
49529;BME280;35423;37.320;-121.762;2023-04-28T11:39:07;99640.88;;;24.93;24.05
49529;BME280;35423;37.320;-121.762;2023-04-28T11:41:34;99643.10;;;24.64;24.08
49529;BME280;35423;37.320;-121.762;2023-04-28T11:44:09;99643.13;;;24.60;24.09
49529;BME280;35423;37.320;-121.762;2023-04-28T11:46:32;99645.91;;;24.81;24.05
49529;BME280;35423;37.320;-121.762;2023-04-28T11:49:07;99648.48;;;24.75;24.03
49529;BME280;35423;37.320;-121.762;2023-04-28T11:51:39;99647.92;;;24.68;24.07
49529;BME280;35423;37.320;-121.762;2023-04-28T11:53:58;99648.72;;;24.62;24.12
49529;BME280;35423;37.320;-121.762;2023-04-28T11:56:26;99648.08;;;24.55;24.15
49529;BME280;35423;37.320;-121.762;2023-04-28T12:01:20;99647.33;;;24.64;24.24
49529;BME280;35423;37.320;-121.762;2023-04-28T12:03:48;99647.95;;;24.30;24.37
49529;BME280;35423;37.320;-121.762;2023-04-28T12:06:18;99648.95;;;24.19;24.44
49529;BME280;35423;37.320;-121.762;2023-04-28T12:08:54;99649.47;;;24.14;24.47
49529;BME280;35423;37.320;-121.762;2023-04-28T12:11:17;99651.36;;;24.37;24.53
49529;BME280;35423;37.320;-121.762;2023-04-28T12:16:37;99652.08;;;24.45;24.67
49529;BME280;35423;37.320;-121.762;2023-04-28T12:18:58;99649.86;;;24.16;24.73
49529;BME280;35423;37.320;-121.762;2023-04-28T12:21:28;99652.72;;;24.09;24.79
49529;BME280;35423;37.320;-121.762;2023-04-28T12:24:00;99657.87;;;24.01;24.86
49529;BME280;35423;37.320;-121.762;2023-04-28T12:26:27;99660.61;;;23.95;24.91
49529;BME280;35423;37.320;-121.762;2023-04-28T12:29:00;99660.74;;;23.89;24.99
49529;BME280;35423;37.320;-121.762;2023-04-28T12:31:29;99661.46;;;23.81;25.09
49529;BME280;35423;37.320;-121.762;2023-04-28T12:33:58;99666.20;;;23.77;25.15
49529;BME280;35423;37.320;-121.762;2023-04-28T12:36:26;99665.12;;;23.90;25.21
49529;BME280;35423;37.320;-121.762;2023-04-28T12:38:52;99666.82;;;23.85;25.18
49529;BME280;35423;37.320;-121.762;2023-04-28T12:41:24;99668.77;;;23.78;25.19
49529;BME280;35423;37.320;-121.762;2023-04-28T12:44:06;99671.63;;;23.74;25.22
49529;BME280;35423;37.320;-121.762;2023-04-28T12:46:31;99671.87;;;23.43;25.34
49529;BME280;35423;37.320;-121.762;2023-04-28T12:48:57;99672.19;;;23.59;25.41
49529;BME280;35423;37.320;-121.762;2023-04-28T12:51:27;99673.04;;;23.57;25.40
49529;BME280;35423;37.320;-121.762;2023-04-28T12:53:56;99671.50;;;23.50;25.45
49529;BME280;35423;37.320;-121.762;2023-04-28T12:56:28;99673.57;;;23.42;25.53
49529;BME280;35423;37.320;-121.762;2023-04-28T12:58:54;99675.21;;;23.14;25.57
49529;BME280;35423;37.320;-121.762;2023-04-28T13:01:36;99673.92;;;23.33;25.57
49529;BME280;35423;37.320;-121.762;2023-04-28T13:04:03;99674.64;;;23.26;25.60
49529;BME280;35423;37.320;-121.762;2023-04-28T13:06:35;99678.92;;;23.22;25.62
49529;BME280;35423;37.320;-121.762;2023-04-28T13:09:13;99683.65;;;23.37;25.72
49529;BME280;35423;37.320;-121.762;2023-04-28T13:11:34;99688.04;;;23.08;25.80
49529;BME280;35423;37.320;-121.762;2023-04-28T13:14:01;99689.18;;;23.24;25.90
49529;BME280;35423;37.320;-121.762;2023-04-28T13:16:28;99691.76;;;22.95;26.01